createdAt,value
2023-04-26T00:00:02.072Z,82.21
2023-04-26T00:02:28.856Z,81.82
2023-04-26T00:04:55.692Z,81.82
2023-04-26T00:07:22.626Z,81.81
2023-04-26T00:09:48.779Z,81.61
2023-04-26T00:12:15.050Z,81.54
2023-04-26T00:14:41.232Z,81.19
2023-04-26T00:17:07.354Z,80.85
2023-04-26T00:19:33.631Z,80.89
2023-04-26T00:21:59.739Z,80.90
2023-04-26T00:24:25.817Z,81.15
2023-04-26T00:26:52.118Z,81.25
2023-04-26T00:29:18.228Z,81.26
2023-04-26T00:31:44.368Z,81.27
2023-04-26T00:34:10.479Z,81.00
2023-04-26T00:36:36.602Z,81.08
2023-04-26T00:39:02.745Z,81.09
2023-04-26T00:41:28.872Z,80.64
2023-04-26T00:43:55.156Z,80.38
2023-04-26T00:46:21.406Z,80.45
2023-04-26T00:48:47.684Z,80.21
2023-04-26T00:51:13.793Z,79.73
2023-04-26T00:53:39.882Z,79.92
2023-04-26T00:56:06.080Z,79.97
2023-04-26T00:58:32.524Z,80.10
2023-04-26T01:00:58.811Z,80.34
2023-04-26T01:03:26.164Z,80.36
2023-04-26T01:05:52.430Z,80.24
2023-04-26T01:08:20.284Z,79.90
2023-04-26T01:10:46.367Z,78.95
2023-04-26T01:13:12.595Z,79.26
2023-04-26T01:15:38.660Z,79.40
2023-04-26T01:18:04.836Z,79.23
2023-04-26T01:20:31.622Z,79.34
2023-04-26T01:22:57.730Z,79.54
2023-04-26T01:25:23.898Z,79.92
2023-04-26T01:27:50.282Z,79.89
2023-04-26T01:30:16.529Z,79.70
2023-04-26T01:32:42.682Z,79.98
2023-04-26T01:35:09.108Z,80.10
2023-04-26T01:37:35.252Z,80.13
2023-04-26T01:40:01.481Z,79.86
2023-04-26T01:42:27.664Z,79.80
2023-04-26T01:44:53.833Z,79.60
2023-04-26T01:47:20.164Z,79.31
2023-04-26T01:49:46.292Z,78.97
2023-04-26T01:52:12.371Z,79.33
2023-04-26T01:54:38.524Z,79.20
2023-04-26T01:57:04.670Z,79.19
2023-04-26T01:59:30.774Z,79.45
2023-04-26T02:01:57.168Z,79.64
2023-04-26T02:04:23.667Z,79.56
2023-04-26T02:06:50.065Z,79.68
2023-04-26T02:09:16.224Z,79.78
2023-04-26T02:11:42.372Z,79.76
2023-04-26T02:14:08.519Z,79.97
2023-04-26T02:16:34.676Z,79.96
2023-04-26T02:19:00.852Z,79.95
2023-04-26T02:21:27.620Z,80.08
2023-04-26T02:23:53.898Z,80.12
2023-04-26T02:26:20.017Z,79.97
2023-04-26T02:28:46.233Z,80.11
2023-04-26T02:31:12.327Z,80.08
2023-04-26T02:33:38.513Z,80.31
2023-04-26T02:36:05.409Z,80.30
2023-04-26T02:38:31.537Z,79.94
2023-04-26T02:40:57.633Z,79.54
2023-04-26T02:43:23.706Z,79.46
2023-04-26T02:45:49.805Z,78.94
2023-04-26T02:48:15.967Z,78.79
2023-04-26T02:50:42.096Z,78.42
2023-04-26T02:53:08.240Z,78.10
2023-04-26T02:55:34.364Z,77.29
2023-04-26T02:58:00.495Z,76.52
2023-04-26T03:00:27.204Z,75.71
2023-04-26T03:02:53.714Z,75.80
2023-04-26T03:05:20.109Z,76.02
2023-04-26T03:07:46.298Z,76.31
2023-04-26T03:10:12.696Z,76.19
2023-04-26T03:12:38.848Z,75.98
2023-04-26T03:15:04.929Z,75.69
2023-04-26T03:17:31.132Z,75.29
2023-04-26T03:19:57.400Z,74.95
2023-04-26T03:22:23.705Z,74.77
2023-04-26T03:24:50.086Z,74.97
2023-04-26T03:27:16.475Z,74.81
2023-04-26T03:29:44.141Z,74.40
2023-04-26T03:32:10.678Z,74.43
2023-04-26T03:34:37.156Z,74.33
2023-04-26T03:37:03.255Z,74.55
2023-04-26T03:39:29.428Z,74.85
2023-04-26T03:41:55.583Z,74.94
2023-04-26T03:44:21.737Z,75.14
2023-04-26T03:46:47.962Z,75.21
2023-04-26T03:49:14.199Z,75.31
2023-04-26T03:51:40.780Z,75.30
2023-04-26T03:54:06.943Z,75.18
2023-04-26T03:56:33.010Z,75.41
2023-04-26T03:58:59.122Z,75.51
2023-04-26T04:01:25.503Z,75.00
2023-04-26T04:03:51.808Z,74.56
2023-04-26T04:06:18.364Z,74.00
2023-04-26T04:08:44.492Z,74.20
2023-04-26T04:11:10.559Z,74.27
2023-04-26T04:13:36.961Z,73.94
2023-04-26T04:16:04.177Z,73.65
2023-04-26T04:18:30.419Z,73.86
2023-04-26T04:20:56.614Z,73.76
2023-04-26T04:23:22.709Z,74.00
2023-04-26T04:25:50.919Z,73.71
2023-04-26T04:28:17.000Z,73.36
2023-04-26T04:30:43.689Z,73.36
2023-04-26T04:33:09.816Z,73.60
2023-04-26T04:35:36.357Z,73.29
2023-04-26T04:38:02.667Z,72.91
2023-04-26T04:40:28.775Z,72.76
2023-04-26T04:42:54.828Z,72.36
2023-04-26T04:45:21.099Z,71.98
2023-04-26T04:47:47.733Z,72.20
2023-04-26T04:50:14.096Z,72.26
2023-04-26T04:52:40.552Z,72.05
2023-04-26T04:55:06.696Z,70.49
2023-04-26T04:57:32.819Z,69.78
2023-04-26T05:00:03.007Z,69.43
2023-04-26T05:02:29.191Z,69.40
2023-04-26T05:04:55.685Z,70.01
2023-04-26T05:07:23.304Z,69.30
2023-04-26T05:09:50.882Z,68.86
2023-04-26T05:12:16.985Z,68.82
2023-04-26T05:14:43.159Z,68.63
2023-04-26T05:17:09.233Z,68.76
2023-04-26T05:19:36.534Z,68.89
2023-04-26T05:22:03.292Z,68.93
2023-04-26T05:24:30.863Z,69.09
2023-04-26T05:26:57.932Z,68.88
2023-04-26T05:29:24.130Z,69.37
2023-04-26T05:31:50.466Z,69.58
2023-04-26T05:34:16.620Z,68.88
2023-04-26T05:36:43.013Z,68.75
2023-04-26T05:39:09.264Z,68.80
2023-04-26T05:41:35.591Z,68.86
2023-04-26T05:44:01.705Z,69.79
2023-04-26T05:46:28.009Z,69.52
2023-04-26T05:48:54.332Z,68.06
2023-04-26T05:51:20.462Z,67.95
2023-04-26T05:53:46.655Z,68.09
2023-04-26T05:56:12.766Z,67.92
2023-04-26T05:58:39.034Z,67.11
2023-04-26T06:01:05.520Z,67.42
2023-04-26T06:03:32.215Z,67.43
2023-04-26T06:05:58.589Z,68.06
2023-04-26T06:08:25.922Z,68.29
2023-04-26T06:10:52.368Z,68.27
2023-04-26T06:13:18.510Z,68.57
2023-04-26T06:15:44.662Z,68.67
2023-04-26T06:18:10.807Z,68.74
2023-04-26T06:20:37.030Z,68.53
2023-04-26T06:23:03.973Z,68.42
2023-04-26T06:25:30.163Z,67.63
2023-04-26T06:27:58.032Z,67.57
2023-04-26T06:30:24.194Z,67.23
2023-04-26T06:32:50.447Z,66.11
2023-04-26T06:35:16.676Z,65.54
2023-04-26T06:37:43.085Z,66.03
2023-04-26T06:40:10.413Z,65.52
2023-04-26T06:42:36.835Z,65.86
2023-04-26T06:45:02.943Z,65.54
2023-04-26T06:47:29.103Z,66.19
2023-04-26T06:49:55.981Z,66.31
2023-04-26T06:52:22.105Z,66.38
2023-04-26T06:54:56.484Z,65.86
2023-04-26T06:57:23.551Z,66.26
2023-04-26T06:59:50.707Z,66.07
2023-04-26T07:02:17.019Z,66.74
2023-04-26T07:04:43.442Z,67.31
2023-04-26T07:07:13.002Z,67.91
2023-04-26T07:09:40.301Z,68.23
2023-04-26T07:12:06.839Z,67.40
2023-04-26T07:14:35.998Z,65.99
2023-04-26T07:17:03.816Z,66.33
2023-04-26T07:19:30.292Z,66.73
2023-04-26T07:21:56.404Z,66.34
2023-04-26T07:24:22.541Z,66.24
2023-04-26T07:26:49.046Z,65.99
2023-04-26T07:29:15.241Z,66.68
2023-04-26T07:31:41.378Z,67.72
2023-04-26T07:34:07.764Z,68.04
2023-04-26T07:36:33.843Z,67.82
2023-04-26T07:39:00.269Z,67.64
2023-04-26T07:41:26.399Z,67.31
2023-04-26T07:43:52.741Z,66.99
2023-04-26T07:46:19.236Z,66.99
2023-04-26T07:48:47.758Z,66.23
2023-04-26T07:51:13.897Z,66.56
2023-04-26T07:53:40.514Z,66.59
2023-04-26T07:56:09.645Z,66.68
2023-04-26T07:58:35.783Z,66.15
2023-04-26T08:01:02.077Z,65.53
2023-04-26T08:03:28.496Z,64.61
2023-04-26T08:05:55.203Z,63.99
2023-04-26T08:08:21.536Z,63.07
2023-04-26T08:10:47.723Z,62.88
2023-04-26T08:13:13.894Z,65.09
2023-04-26T08:15:40.664Z,65.25
2023-04-26T08:18:06.903Z,66.62
2023-04-26T08:20:33.125Z,67.39
2023-04-26T08:22:59.277Z,67.66
2023-04-26T08:25:25.421Z,68.48
2023-04-26T08:27:51.844Z,69.11
2023-04-26T08:30:18.469Z,68.74
2023-04-26T08:32:45.122Z,68.55
2023-04-26T08:35:11.339Z,68.10
2023-04-26T08:37:37.683Z,67.13
2023-04-26T08:40:03.927Z,66.34
2023-04-26T08:42:30.570Z,66.40
2023-04-26T08:44:56.717Z,66.54
2023-04-26T08:47:22.822Z,63.78
2023-04-26T08:49:52.317Z,64.22
2023-04-26T08:52:22.441Z,64.82
2023-04-26T08:54:48.645Z,67.18
2023-04-26T08:57:14.800Z,67.77
2023-04-26T08:59:41.322Z,68.01
2023-04-26T09:02:07.561Z,69.70
2023-04-26T09:04:34.043Z,69.46
2023-04-26T09:07:00.416Z,70.41
2023-04-26T09:09:29.431Z,69.28
2023-04-26T09:11:55.877Z,70.21
2023-04-26T09:14:21.960Z,68.96
2023-04-26T09:16:48.300Z,69.11
2023-04-26T09:19:14.444Z,67.47
2023-04-26T09:21:40.576Z,65.97
2023-04-26T09:24:06.742Z,65.93
2023-04-26T09:26:32.875Z,65.95
2023-04-26T09:28:59.056Z,65.41
2023-04-26T09:31:25.236Z,63.73
2023-04-26T09:33:51.321Z,64.02
2023-04-26T09:36:17.435Z,64.45
2023-04-26T09:38:43.581Z,64.61
2023-04-26T09:41:09.629Z,64.13
2023-04-26T09:43:36.407Z,63.78
2023-04-26T09:46:02.673Z,62.78
2023-04-26T09:48:30.066Z,62.38
2023-04-26T09:50:56.599Z,62.77
2023-04-26T09:53:22.766Z,59.50
2023-04-26T09:55:48.980Z,59.19
2023-04-26T09:58:16.042Z,61.16
2023-04-26T10:00:42.213Z,62.78
2023-04-26T10:03:09.446Z,63.36
2023-04-26T10:05:35.775Z,63.46
2023-04-26T10:08:03.034Z,62.48
2023-04-26T10:10:29.157Z,62.19
2023-04-26T10:12:55.582Z,61.80
2023-04-26T10:15:22.057Z,59.55
2023-04-26T10:17:49.654Z,58.93
2023-04-26T10:20:17.793Z,58.75
2023-04-26T10:22:44.074Z,58.99
2023-04-26T10:25:10.554Z,58.63
2023-04-26T10:27:36.679Z,58.19
2023-04-26T10:30:03.877Z,62.09
2023-04-26T10:32:31.337Z,64.25
2023-04-26T10:34:57.451Z,65.43
2023-04-26T10:37:23.578Z,66.51
2023-04-26T10:39:49.889Z,66.20
2023-04-26T10:42:23.568Z,65.99
2023-04-26T10:44:50.670Z,65.94
2023-04-26T10:47:16.784Z,66.44
2023-04-26T10:49:44.459Z,68.40
2023-04-26T10:52:11.145Z,71.14
2023-04-26T10:54:37.311Z,71.58
2023-04-26T10:57:03.707Z,71.83
2023-04-26T10:59:43.417Z,71.75
2023-04-26T11:02:16.746Z,72.18
2023-04-26T11:04:42.903Z,72.61
2023-04-26T11:07:09.309Z,72.05
2023-04-26T11:09:41.724Z,72.12
2023-04-26T11:12:08.183Z,72.26
2023-04-26T11:14:34.920Z,72.69
2023-04-26T11:17:01.003Z,72.75
2023-04-26T11:19:27.273Z,72.48
2023-04-26T11:21:54.584Z,71.25
2023-04-26T11:24:22.068Z,70.86
2023-04-26T11:26:48.210Z,69.72
2023-04-26T11:29:14.786Z,68.76
2023-04-26T11:31:41.016Z,67.62
2023-04-26T11:34:07.818Z,66.68
2023-04-26T11:36:34.040Z,67.18
2023-04-26T11:39:01.814Z,66.04
2023-04-26T11:41:28.033Z,65.76
2023-04-26T11:43:54.236Z,63.57
2023-04-26T11:46:20.691Z,61.94
2023-04-26T11:48:46.834Z,64.22
2023-04-26T11:51:12.922Z,64.97
2023-04-26T11:53:39.591Z,65.54
2023-04-26T11:56:05.738Z,65.92
2023-04-26T11:58:31.919Z,65.43
2023-04-26T12:00:58.219Z,65.20
2023-04-26T12:03:24.612Z,64.48
2023-04-26T12:05:50.821Z,64.40
2023-04-26T12:08:17.558Z,62.62
2023-04-26T12:10:43.663Z,60.31
2023-04-26T12:13:10.454Z,58.37
2023-04-26T12:15:36.736Z,55.59
2023-04-26T12:18:02.933Z,55.20
2023-04-26T12:20:29.185Z,53.92
2023-04-26T12:22:55.311Z,54.93
2023-04-26T12:25:21.701Z,56.05
2023-04-26T12:27:47.902Z,63.56
2023-04-26T12:30:14.241Z,60.91
2023-04-26T12:32:41.333Z,60.42
2023-04-26T12:35:07.427Z,59.76
2023-04-26T12:37:33.822Z,61.50
2023-04-26T12:40:00.480Z,62.68
2023-04-26T12:42:26.584Z,63.28
2023-04-26T12:44:52.762Z,64.19
2023-04-26T12:47:18.870Z,65.63
2023-04-26T12:49:45.089Z,65.89
2023-04-26T12:52:14.218Z,65.06
2023-04-26T12:54:40.405Z,63.39
2023-04-26T12:57:06.492Z,64.56
2023-04-26T12:59:32.991Z,64.80
2023-04-26T13:01:59.164Z,65.43
2023-04-26T13:04:25.588Z,63.81
2023-04-26T13:06:51.896Z,60.05
2023-04-26T13:09:18.210Z,60.69
2023-04-26T13:11:44.365Z,58.96
2023-04-26T13:14:11.271Z,59.64
2023-04-26T13:16:41.634Z,56.34
2023-04-26T13:19:07.861Z,53.49
2023-04-26T13:21:34.068Z,54.86
2023-04-26T13:24:00.570Z,54.03
2023-04-26T13:26:27.932Z,55.33
2023-04-26T13:28:54.228Z,56.24
2023-04-26T13:31:20.504Z,57.03
2023-04-26T13:33:48.491Z,56.78
2023-04-26T13:36:15.275Z,54.93
2023-04-26T13:38:41.344Z,54.11
2023-04-26T13:41:07.710Z,52.11
2023-04-26T13:43:33.875Z,52.21
2023-04-26T13:46:00.283Z,53.12
2023-04-26T13:48:26.429Z,53.19
2023-04-26T13:50:52.649Z,53.71
2023-04-26T13:53:21.872Z,53.72
2023-04-26T13:55:48.003Z,53.66
2023-04-26T13:58:14.583Z,52.31
2023-04-26T14:00:41.230Z,51.45
2023-04-26T14:03:07.627Z,51.96
2023-04-26T14:05:34.169Z,52.74
2023-04-26T14:08:00.309Z,52.87
2023-04-26T14:10:26.373Z,54.56
2023-04-26T14:12:52.872Z,54.06
2023-04-26T14:15:19.138Z,53.75
2023-04-26T14:17:46.240Z,52.82
2023-04-26T14:20:12.553Z,52.57
2023-04-26T14:22:38.633Z,52.54
2023-04-26T14:25:04.867Z,52.01
2023-04-26T14:27:31.075Z,50.90
2023-04-26T14:29:57.270Z,50.44
2023-04-26T14:32:23.497Z,49.89
2023-04-26T14:34:50.031Z,47.83
2023-04-26T14:37:16.148Z,48.36
2023-04-26T14:39:42.254Z,49.05
2023-04-26T14:42:08.432Z,49.08
2023-04-26T14:44:35.889Z,48.03
2023-04-26T14:47:01.971Z,48.49
2023-04-26T14:49:28.138Z,48.34
2023-04-26T14:51:54.284Z,46.34
2023-04-26T14:54:20.572Z,46.17
2023-04-26T14:56:46.830Z,46.26
2023-04-26T14:59:13.021Z,47.22
2023-04-26T15:01:39.362Z,47.82
2023-04-26T15:04:05.721Z,47.73
2023-04-26T15:06:33.440Z,48.36
2023-04-26T15:08:59.605Z,48.72
2023-04-26T15:11:25.738Z,48.62
2023-04-26T15:13:51.834Z,49.21
2023-04-26T15:16:18.690Z,49.33
2023-04-26T15:18:45.024Z,48.64
2023-04-26T15:21:11.101Z,49.64
2023-04-26T15:23:37.314Z,48.89
2023-04-26T15:26:03.726Z,47.49
2023-04-26T15:28:29.893Z,47.25
2023-04-26T15:30:56.098Z,47.67
2023-04-26T15:33:22.271Z,48.43
2023-04-26T15:35:50.251Z,47.89
2023-04-26T15:38:16.350Z,49.28
2023-04-26T15:40:42.489Z,49.17
2023-04-26T15:43:08.677Z,48.46
2023-04-26T15:45:35.218Z,49.12
2023-04-26T15:48:01.395Z,48.58
2023-04-26T15:50:27.528Z,48.92
2023-04-26T15:52:53.675Z,49.28
2023-04-26T15:55:20.340Z,49.60
2023-04-26T15:57:46.565Z,49.00
2023-04-26T16:00:13.512Z,49.90
2023-04-26T16:02:40.230Z,49.62
2023-04-26T16:05:07.440Z,50.46
2023-04-26T16:07:33.577Z,51.42
2023-04-26T16:09:59.958Z,50.88
2023-04-26T16:12:26.087Z,50.59
2023-04-26T16:14:52.325Z,51.05
2023-04-26T16:17:18.545Z,51.19
2023-04-26T16:19:44.750Z,51.12
2023-04-26T16:22:10.891Z,51.18
2023-04-26T16:24:37.006Z,51.62
2023-04-26T16:27:04.002Z,50.88
2023-04-26T16:29:30.346Z,51.21
2023-04-26T16:31:56.741Z,50.68
2023-04-26T16:34:23.023Z,50.13
2023-04-26T16:36:51.851Z,51.23
2023-04-26T16:39:19.044Z,51.34
2023-04-26T16:41:45.496Z,51.35
2023-04-26T16:44:11.658Z,51.40
2023-04-26T16:46:37.818Z,51.73
2023-04-26T16:49:08.745Z,54.15
2023-04-26T16:51:35.113Z,52.48
2023-04-26T16:54:01.378Z,51.97
2023-04-26T16:56:27.452Z,52.32
2023-04-26T16:58:53.628Z,52.35
2023-04-26T17:01:20.375Z,52.73
2023-04-26T17:03:48.001Z,53.09
2023-04-26T17:06:14.261Z,53.31
2023-04-26T17:08:40.435Z,52.81
2023-04-26T17:11:07.216Z,52.70
2023-04-26T17:13:33.427Z,52.55
2023-04-26T17:15:59.629Z,52.29
2023-04-26T17:18:26.020Z,51.52
2023-04-26T17:20:53.115Z,52.50
2023-04-26T17:23:19.338Z,52.77
2023-04-26T17:25:45.605Z,52.75
2023-04-26T17:28:13.507Z,52.97
2023-04-26T17:30:39.865Z,53.26
2023-04-26T17:33:06.863Z,53.71
2023-04-26T17:35:33.309Z,54.01
2023-04-26T17:37:59.399Z,54.34
2023-04-26T17:40:25.504Z,54.55
2023-04-26T17:42:51.675Z,54.83
2023-04-26T17:45:17.812Z,55.09
2023-04-26T17:47:44.899Z,55.44
2023-04-26T17:50:11.090Z,55.91
2023-04-26T17:52:37.302Z,56.13
2023-04-26T17:55:04.474Z,57.03
2023-04-26T17:57:30.652Z,57.50
2023-04-26T17:59:56.818Z,58.44
2023-04-26T18:02:23.292Z,58.71
2023-04-26T18:04:49.928Z,58.54
2023-04-26T18:07:16.280Z,58.84
2023-04-26T18:09:42.335Z,58.88
2023-04-26T18:12:08.511Z,58.85
2023-04-26T18:14:34.787Z,59.00
2023-04-26T18:17:00.992Z,59.00
2023-04-26T18:19:27.473Z,59.10
2023-04-26T18:21:53.638Z,59.15
2023-04-26T18:24:19.780Z,59.22
2023-04-26T18:26:45.973Z,58.99
2023-04-26T18:29:12.342Z,59.11
2023-04-26T18:31:38.720Z,59.30
2023-04-26T18:34:06.135Z,59.56
2023-04-26T18:36:32.266Z,59.61
2023-04-26T18:39:00.378Z,59.72
2023-04-26T18:41:27.220Z,59.88
2023-04-26T18:43:53.775Z,60.06
2023-04-26T18:46:20.643Z,60.32
2023-04-26T18:48:46.828Z,60.58
2023-04-26T18:51:13.058Z,60.51
2023-04-26T18:53:39.144Z,60.49
2023-04-26T18:56:05.283Z,60.64
2023-04-26T18:58:31.587Z,60.50
2023-04-26T19:00:57.699Z,60.64
2023-04-26T19:03:24.058Z,60.82
2023-04-26T19:05:50.637Z,61.12
2023-04-26T19:08:17.659Z,61.38
2023-04-26T19:10:43.839Z,61.67
2023-04-26T19:13:10.064Z,61.75
2023-04-26T19:15:36.195Z,62.01
2023-04-26T19:18:02.422Z,62.38
2023-04-26T19:20:30.889Z,62.48
2023-04-26T19:22:56.979Z,62.68
2023-04-26T19:25:23.666Z,62.38
2023-04-26T19:27:49.832Z,62.91
2023-04-26T19:30:15.952Z,62.94
2023-04-26T19:32:43.334Z,62.80
2023-04-26T19:35:09.624Z,62.88
2023-04-26T19:37:38.668Z,63.01
2023-04-26T19:40:09.389Z,63.23
2023-04-26T19:42:35.628Z,64.20
2023-04-26T19:45:01.926Z,64.64
2023-04-26T19:47:28.070Z,64.47
2023-04-26T19:49:56.565Z,64.27
2023-04-26T19:52:22.746Z,64.30
2023-04-26T19:54:48.887Z,64.51
2023-04-26T19:57:15.001Z,64.88
2023-04-26T19:59:41.193Z,64.97
2023-04-26T20:02:07.464Z,65.30
2023-04-26T20:04:34.005Z,65.39
2023-04-26T20:07:00.568Z,65.44
2023-04-26T20:09:26.756Z,65.60
2023-04-26T20:11:52.858Z,65.64
2023-04-26T20:14:18.962Z,65.73
2023-04-26T20:16:45.159Z,65.74
2023-04-26T20:19:11.359Z,65.90
2023-04-26T20:21:37.645Z,66.25
2023-04-26T20:24:03.717Z,66.31
2023-04-26T20:26:29.822Z,66.37
2023-04-26T20:28:55.932Z,66.37
2023-04-26T20:31:22.052Z,66.41
2023-04-26T20:33:48.218Z,66.67
2023-04-26T20:36:14.378Z,66.80
2023-04-26T20:38:40.729Z,66.72
2023-04-26T20:41:07.083Z,66.75
2023-04-26T20:43:33.177Z,66.79
2023-04-26T20:45:59.444Z,66.73
2023-04-26T20:48:25.744Z,66.64
2023-04-26T20:50:52.130Z,66.49
2023-04-26T20:53:18.216Z,66.46
2023-04-26T20:55:44.348Z,66.70
2023-04-26T20:58:10.456Z,66.62
2023-04-26T21:00:36.566Z,66.63
2023-04-26T21:03:02.972Z,66.64
2023-04-26T21:05:29.210Z,66.60
2023-04-26T21:07:55.884Z,66.56
2023-04-26T21:10:22.117Z,66.50
2023-04-26T21:12:48.273Z,66.55
2023-04-26T21:15:14.373Z,66.74
2023-04-26T21:17:40.734Z,66.88
2023-04-26T21:20:07.242Z,67.06
2023-04-26T21:22:33.489Z,67.08
2023-04-26T21:24:59.809Z,66.98
2023-04-26T21:27:26.279Z,67.06
2023-04-26T21:29:52.387Z,67.11
2023-04-26T21:32:18.823Z,67.01
2023-04-26T21:34:45.104Z,67.09
2023-04-26T21:37:11.286Z,67.62
2023-04-26T21:39:37.618Z,67.74
2023-04-26T21:42:03.786Z,67.87
2023-04-26T21:44:30.193Z,67.92
2023-04-26T21:46:57.006Z,68.23
2023-04-26T21:49:23.445Z,68.76
2023-04-26T21:51:49.753Z,68.63
2023-04-26T21:54:16.339Z,68.45
2023-04-26T21:56:42.632Z,68.38
2023-04-26T21:59:09.658Z,68.48
2023-04-26T22:01:36.265Z,68.51
2023-04-26T22:04:03.109Z,68.51
2023-04-26T22:06:29.379Z,68.40
2023-04-26T22:08:55.730Z,68.28
2023-04-26T22:11:21.911Z,68.37
2023-04-26T22:13:48.190Z,68.52
2023-04-26T22:16:14.477Z,68.45
2023-04-26T22:18:40.895Z,68.46
2023-04-26T22:21:07.133Z,69.29
2023-04-26T22:23:33.492Z,69.80
2023-04-26T22:26:00.080Z,70.21
2023-04-26T22:28:26.326Z,70.61
2023-04-26T22:30:52.537Z,70.79
2023-04-26T22:33:18.737Z,70.85
2023-04-26T22:35:45.035Z,71.01
2023-04-26T22:38:11.266Z,71.57
2023-04-26T22:40:37.392Z,71.79
2023-04-26T22:43:03.699Z,71.43
2023-04-26T22:45:29.954Z,71.30
2023-04-26T22:47:56.595Z,71.43
2023-04-26T22:50:23.155Z,71.40
2023-04-26T22:52:50.179Z,71.41
2023-04-26T22:55:16.359Z,71.47
2023-04-26T22:57:42.531Z,71.59
2023-04-26T23:00:09.528Z,71.60
2023-04-26T23:02:36.065Z,71.68
2023-04-26T23:05:04.505Z,71.71
2023-04-26T23:07:31.008Z,71.81
2023-04-26T23:09:57.245Z,71.84
2023-04-26T23:12:23.542Z,71.93
2023-04-26T23:14:50.129Z,71.95
2023-04-26T23:17:16.457Z,71.99
2023-04-26T23:19:42.755Z,72.07
2023-04-26T23:22:09.059Z,72.49
2023-04-26T23:24:35.757Z,73.14
2023-04-26T23:27:02.030Z,73.65
2023-04-26T23:29:28.244Z,74.40
2023-04-26T23:31:54.589Z,74.66
2023-04-26T23:34:20.929Z,74.24
2023-04-26T23:36:47.223Z,74.02
2023-04-26T23:39:13.569Z,74.14
2023-04-26T23:41:40.013Z,74.30
2023-04-26T23:44:06.596Z,74.15
2023-04-26T23:46:32.834Z,74.09
2023-04-26T23:48:59.199Z,74.23
2023-04-26T23:51:26.482Z,74.05
2023-04-26T23:53:52.652Z,74.11
2023-04-26T23:56:19.117Z,74.01
2023-04-26T23:58:45.301Z,73.91
